Time;durP1;ratioP1;P1;durP2;ratioP2;P2;SDS_P1;SDS_P2;PMS_P1;PMS_P2;Temp;Humidity;BMP_temperature;BMP_pressure;BME280_temperature;BME280_humidity;BME280_pressure;Samples;Min_cycle;Max_cycle;Signal;HPM_P1;HPM_P2
2023/12/06 00:01:48;;;;;;;38.17;10.75;;;1.60;99.90;;;;;;4963781;28;20026;-65
2023/12/06 00:04:14;;;;;;;46.97;14.85;;;1.60;99.90;;;;;;4987480;28;20053;-66
2023/12/06 00:06:39;;;;;;;51.72;14.93;;;1.50;99.90;;;;;;4990038;28;20057;-66
2023/12/06 00:09:05;;;;;;;51.38;15.50;;;1.60;99.90;;;;;;4988837;28;20374;-66
2023/12/06 00:11:31;;;;;;;53.78;17.85;;;1.60;99.90;;;;;;4988974;28;20041;-67
2023/12/06 00:13:56;;;;;;;50.83;12.65;;;1.60;99.90;;;;;;4987193;28;20100;-66
2023/12/06 00:16:22;;;;;;;59.20;15.75;;;1.60;99.90;;;;;;4971603;28;20027;-66
2023/12/06 00:18:49;;;;;;;60.30;18.02;;;1.60;99.90;;;;;;4989197;28;20034;-65
2023/12/06 00:21:14;;;;;;;55.33;16.67;;;1.60;99.90;;;;;;4981841;28;20490;-66
2023/12/06 00:23:40;;;;;;;68.90;17.52;;;1.60;99.90;;;;;;4981299;28;20058;-65
2023/12/06 00:26:06;;;;;;;63.92;17.33;;;1.60;99.90;;;;;;4982186;28;20044;-66
2023/12/06 00:28:32;;;;;;;48.97;14.82;;;1.60;99.90;;;;;;4980348;28;20080;-66
2023/12/06 00:30:58;;;;;;;70.35;19.83;;;1.60;99.90;;;;;;4983655;28;20508;-66
2023/12/06 00:33:23;;;;;;;54.00;16.67;;;1.60;99.90;;;;;;4989243;28;20058;-67
2023/12/06 00:35:49;;;;;;;72.35;18.17;;;1.60;99.90;;;;;;4989570;28;20035;-65
2023/12/06 00:38:17;;;;;;;51.03;14.82;;;1.60;99.90;;;;;;4990103;28;20038;-68
2023/12/06 00:40:44;;;;;;;64.70;18.15;;;1.60;99.90;;;;;;4990571;28;20022;-67
2023/12/06 00:43:10;;;;;;;74.43;20.00;;;1.60;99.90;;;;;;4986336;28;20464;-66
2023/12/06 00:45:35;;;;;;;63.97;17.98;;;1.60;99.90;;;;;;4990912;28;20106;-67
2023/12/06 00:48:01;;;;;;;48.88;16.83;;;1.50;99.90;;;;;;4990407;28;20014;-67
2023/12/06 00:50:29;;;;;;;83.43;19.50;;;1.50;99.90;;;;;;4990500;28;20034;-67
2023/12/06 00:52:54;;;;;;;59.60;21.17;;;1.50;99.90;;;;;;4990301;28;20073;-66
2023/12/06 00:55:20;;;;;;;64.38;19.60;;;1.50;99.90;;;;;;4961649;28;20482;-67
2023/12/06 00:57:45;;;;;;;41.20;12.15;;;1.60;99.90;;;;;;4986412;28;20030;-67
2023/12/06 01:00:12;;;;;;;71.70;18.83;;;1.50;99.90;;;;;;4970705;28;20025;-67
2023/12/06 01:02:38;;;;;;;54.50;17.73;;;1.50;99.90;;;;;;4970465;28;20026;-67
2023/12/06 01:05:05;;;;;;;45.42;14.60;;;1.50;99.90;;;;;;4988816;28;20031;-66
2023/12/06 01:07:31;;;;;;;56.25;17.13;;;1.50;99.90;;;;;;4989933;28;20081;-67
2023/12/06 01:09:56;;;;;;;58.10;19.77;;;1.50;99.90;;;;;;4990479;28;20413;-67
2023/12/06 01:12:22;;;;;;;37.72;14.60;;;1.40;99.90;;;;;;4972579;28;20034;-67
2023/12/06 01:14:47;;;;;;;54.55;15.60;;;1.40;99.90;;;;;;4990110;28;20445;-67
2023/12/06 01:17:13;;;;;;;62.42;20.42;;;1.40;99.90;;;;;;4989439;28;20389;-67
2023/12/06 01:19:39;;;;;;;64.85;22.52;;;1.40;99.90;;;;;;4990132;28;20070;-67
2023/12/06 01:22:04;;;;;;;71.00;21.42;;;1.40;99.90;;;;;;4988213;28;20105;-67
2023/12/06 01:24:30;;;;;;;45.03;13.90;;;1.40;99.90;;;;;;4983720;28;20046;-67
2023/12/06 01:26:56;;;;;;;73.10;22.52;;;1.40;99.90;;;;;;4972609;28;20875;-66
2023/12/06 01:29:21;;;;;;;69.55;20.50;;;1.40;99.90;;;;;;4989386;28;20030;-67
2023/12/06 01:31:47;;;;;;;67.30;20.35;;;1.30;99.90;;;;;;4970562;28;20102;-66
2023/12/06 01:34:15;;;;;;;58.20;23.25;;;1.40;99.90;;;;;;4989297;28;20049;-66
2023/12/06 01:36:41;;;;;;;53.70;17.05;;;1.40;99.90;;;;;;4972726;28;20019;-67
2023/12/06 01:39:08;;;;;;;57.72;20.05;;;1.30;99.90;;;;;;4987757;28;20039;-66
2023/12/06 01:41:33;;;;;;;80.03;23.65;;;1.30;99.90;;;;;;4972466;28;20026;-66
2023/12/06 01:43:59;;;;;;;67.82;21.95;;;1.30;99.90;;;;;;4990160;28;20026;-66
2023/12/06 01:46:25;;;;;;;42.42;12.57;;;1.30;99.90;;;;;;4989715;28;20027;-66
2023/12/06 01:48:51;;;;;;;64.60;20.17;;;1.30;99.90;;;;;;4989414;28;20015;-67
2023/12/06 01:51:18;;;;;;;80.63;23.52;;;1.30;99.90;;;;;;4989360;28;20089;-67
2023/12/06 01:53:44;;;;;;;42.30;17.17;;;1.30;99.90;;;;;;4986761;28;20054;-66
2023/12/06 01:56:10;;;;;;;59.50;18.85;;;1.30;99.90;;;;;;4985332;28;20491;-67
2023/12/06 01:58:38;;;;;;;54.47;16.27;;;1.20;99.90;;;;;;4989409;28;20030;-67
2023/12/06 02:01:05;;;;;;;64.78;24.73;;;1.20;99.90;;;;;;4987997;28;20022;-66
2023/12/06 02:03:34;;;;;;;69.43;22.50;;;1.30;99.90;;;;;;4989249;28;20023;-67
2023/12/06 02:06:02;;;;;;;;;;;1.40;99.90;;;;;;4972236;28;20462;-66
2023/12/06 02:08:29;;;;;;;45.42;17.30;;;1.20;99.90;;;;;;4971344;28;19906;-66
2023/12/06 02:10:55;;;;;;;52.72;20.40;;;1.20;99.90;;;;;;4970860;28;20534;-66
2023/12/06 02:13:21;;;;;;;55.85;17.88;;;1.20;99.90;;;;;;4986075;28;20066;-67
2023/12/06 02:15:47;;;;;;;43.83;14.55;;;1.20;99.90;;;;;;4989459;28;20117;-66
2023/12/06 02:18:13;;;;;;;40.47;13.48;;;1.20;99.90;;;;;;4988463;28;20121;-66
2023/12/06 02:20:40;;;;;;;45.95;14.88;;;1.30;99.90;;;;;;4988416;28;20117;-66
2023/12/06 02:23:07;;;;;;;54.17;16.35;;;1.20;99.90;;;;;;4988566;28;20031;-66
2023/12/06 02:25:33;;;;;;;46.45;15.93;;;1.20;99.90;;;;;;4988161;28;20050;-67
2023/12/06 02:27:59;;;;;;;51.53;17.10;;;1.20;99.90;;;;;;4989130;28;20108;-67
2023/12/06 02:30:25;;;;;;;63.97;17.30;;;1.20;99.90;;;;;;4986614;28;20071;-67
2023/12/06 02:32:50;;;;;;;69.45;20.73;;;1.20;99.90;;;;;;4988967;28;20020;-67
2023/12/06 02:35:28;;;;;;;57.55;17.42;;;1.20;99.90;;;;;;4970698;28;20113;-67
2023/12/06 02:37:57;;;;;;;47.25;14.43;;;1.20;99.90;;;;;;4962318;28;20029;-67
2023/12/06 02:40:25;;;;;;;45.30;15.82;;;1.10;99.90;;;;;;4986956;28;20026;-67
2023/12/06 02:42:51;;;;;;;51.20;18.70;;;1.10;99.90;;;;;;4971365;28;20033;-67
2023/12/06 02:45:17;;;;;;;42.65;15.20;;;1.10;99.90;;;;;;4988261;28;20340;-67
2023/12/06 02:47:42;;;;;;;43.13;17.05;;;1.00;99.90;;;;;;4988583;28;20072;-67
2023/12/06 02:50:08;;;;;;;53.58;19.42;;;1.00;99.90;;;;;;4988307;28;20069;-67
2023/12/06 02:52:34;;;;;;;60.80;16.38;;;1.00;99.90;;;;;;4988820;28;20113;-67
2023/12/06 02:55:00;;;;;;;38.15;14.80;;;1.00;99.90;;;;;;4989509;28;20026;-67
2023/12/06 02:57:25;;;;;;;51.53;16.23;;;0.90;99.90;;;;;;4986646;28;20058;-67
2023/12/06 02:59:53;;;;;;;40.65;13.30;;;0.90;99.90;;;;;;4988607;28;20367;-67
2023/12/06 03:02:21;;;;;;;35.83;13.00;;;0.90;99.90;;;;;;4986124;28;20034;-67
2023/12/06 03:04:49;;;;;;;43.40;14.20;;;0.90;99.90;;;;;;4988240;28;20490;-67
2023/12/06 03:07:15;;;;;;;34.05;11.50;;;0.90;99.90;;;;;;4969992;28;20049;-67
2023/12/06 03:09:40;;;;;;;35.47;12.00;;;0.90;99.90;;;;;;4988284;28;20076;-66
2023/12/06 03:12:07;;;;;;;35.63;12.80;;;0.90;99.90;;;;;;4988627;28;20022;-66
2023/12/06 03:14:33;;;;;;;42.30;15.82;;;0.90;99.90;;;;;;4988396;28;20057;-66
2023/12/06 03:16:58;;;;;;;40.88;13.50;;;0.80;99.90;;;;;;4988071;28;20018;-66
2023/12/06 03:19:24;;;;;;;30.70;9.73;;;0.80;99.90;;;;;;4987479;28;20053;-66
2023/12/06 03:21:50;;;;;;;26.95;10.20;;;0.80;99.90;;;;;;4986323;28;20675;-66
2023/12/06 03:24:16;;;;;;;41.13;13.85;;;0.70;99.90;;;;;;4991719;28;20028;-66
2023/12/06 03:26:41;;;;;;;40.90;13.48;;;0.80;99.90;;;;;;4974462;28;20101;-67
2023/12/06 03:29:07;;;;;;;21.00;8.13;;;0.70;99.90;;;;;;4968060;28;20015;-66
2023/12/06 03:31:33;;;;;;;52.47;21.38;;;0.70;99.90;;;;;;4990266;28;20025;-66
2023/12/06 03:33:58;;;;;;;44.58;14.32;;;0.70;99.90;;;;;;4991886;28;20430;-66
2023/12/06 03:36:24;;;;;;;45.45;13.57;;;0.70;99.90;;;;;;4991343;28;20038;-66
2023/12/06 03:38:49;;;;;;;61.53;18.63;;;0.70;99.90;;;;;;4991945;28;20030;-66
2023/12/06 03:41:15;;;;;;;62.95;18.08;;;0.70;99.90;;;;;;4991386;28;20041;-66
2023/12/06 03:43:41;;;;;;;62.45;19.40;;;0.70;99.90;;;;;;4991717;28;20498;-67
2023/12/06 03:46:09;;;;;;;55.08;19.02;;;0.70;99.90;;;;;;4967774;28;20023;-67
2023/12/06 03:48:35;;;;;;;46.92;16.00;;;0.70;99.90;;;;;;4967483;28;20022;-67
2023/12/06 03:51:00;;;;;;;46.00;15.80;;;0.70;99.90;;;;;;4974382;28;20025;-67
2023/12/06 03:53:26;;;;;;;51.10;17.23;;;0.70;99.90;;;;;;4990663;28;20144;-66
2023/12/06 03:55:52;;;;;;;58.28;18.27;;;0.70;99.90;;;;;;4991369;28;20023;-66
2023/12/06 03:58:18;;;;;;;51.55;19.17;;;0.70;99.90;;;;;;4991244;28;20030;-67
2023/12/06 04:00:43;;;;;;;37.60;14.65;;;0.70;99.90;;;;;;4988171;28;20425;-66
2023/12/06 04:03:12;;;;;;;54.80;21.33;;;0.60;99.90;;;;;;4990768;28;20390;-66
2023/12/06 04:05:43;;;;;;;32.05;12.23;;;0.50;99.90;;;;;;4991556;28;20018;-66
2023/12/06 04:08:10;;;;;;;52.88;18.98;;;0.40;99.90;;;;;;4989117;28;20030;-65
2023/12/06 04:10:36;;;;;;;58.08;22.40;;;0.40;99.90;;;;;;4989986;28;20165;-65
2023/12/06 04:13:04;;;;;;;52.08;19.33;;;0.30;99.90;;;;;;4991605;28;20037;-65
2023/12/06 04:15:29;;;;;;;51.30;18.92;;;0.30;99.90;;;;;;4991146;28;20019;-65
2023/12/06 04:17:56;;;;;;;41.17;15.52;;;0.30;99.90;;;;;;4966964;28;20544;-66
2023/12/06 04:20:22;;;;;;;41.03;15.75;;;0.30;99.90;;;;;;4972448;28;20504;-66
2023/12/06 04:22:47;;;;;;;50.53;18.95;;;0.20;99.90;;;;;;4989191;28;20031;-66
2023/12/06 04:25:16;;;;;;;59.58;20.73;;;0.20;99.90;;;;;;4990711;28;20035;-66
2023/12/06 04:27:42;;;;;;;72.75;24.50;;;0.30;99.90;;;;;;4974093;28;20109;-66
2023/12/06 04:30:12;;;;;;;40.15;16.75;;;0.20;99.90;;;;;;4964783;28;20033;-66
2023/12/06 04:32:38;;;;;;;48.92;15.90;;;0.20;99.90;;;;;;4970360;28;20022;-66
2023/12/06 04:35:05;;;;;;;38.08;14.98;;;0.20;99.90;;;;;;4990514;28;20033;-66
2023/12/06 04:37:30;;;;;;;53.75;19.75;;;0.20;99.90;;;;;;4973046;28;20084;-66
2023/12/06 04:39:56;;;;;;;51.38;17.63;;;0.20;99.90;;;;;;4990965;28;20038;-66
2023/12/06 04:42:22;;;;;;;64.90;22.85;;;0.30;99.90;;;;;;4990346;28;20022;-66
2023/12/06 04:44:48;;;;;;;71.90;22.88;;;0.30;99.90;;;;;;4973568;28;20529;-65
2023/12/06 04:47:13;;;;;;;52.05;18.67;;;0.20;99.90;;;;;;4989762;28;20018;-65
2023/12/06 04:49:39;;;;;;;62.28;24.23;;;0.20;99.90;;;;;;4990240;28;20034;-65
2023/12/06 04:52:05;;;;;;;77.57;25.33;;;0.20;99.90;;;;;;4973217;28;20066;-65
2023/12/06 04:54:33;;;;;;;59.95;20.50;;;0.20;99.90;;;;;;4990262;28;20405;-65
2023/12/06 04:56:59;;;;;;;42.35;19.50;;;0.20;99.90;;;;;;4988705;28;20525;-65
2023/12/06 04:59:24;;;;;;;58.92;19.73;;;0.20;99.90;;;;;;4971891;28;20109;-65
2023/12/06 05:01:53;;;;;;;80.75;28.48;;;0.20;99.90;;;;;;4962167;28;20022;-65
2023/12/06 05:04:19;;;;;;;71.75;21.77;;;0.20;99.90;;;;;;4971475;28;20073;-65
2023/12/06 05:06:45;;;;;;;80.57;27.20;;;0.20;99.90;;;;;;4972825;28;20470;-66
2023/12/06 05:09:11;;;;;;;95.25;32.58;;;0.20;99.90;;;;;;4972485;28;20442;-66
2023/12/06 05:11:37;;;;;;;88.18;29.13;;;0.20;99.90;;;;;;4990986;28;20033;-66
2023/12/06 05:14:03;;;;;;;97.50;29.00;;;0.20;99.90;;;;;;4990554;28;20027;-66
2023/12/06 05:16:29;;;;;;;90.40;28.42;;;0.20;99.90;;;;;;4985120;28;20509;-66
2023/12/06 05:18:57;;;;;;;79.05;28.52;;;0.20;99.90;;;;;;4968604;28;20126;-66
2023/12/06 05:21:22;;;;;;;92.68;30.50;;;0.20;99.90;;;;;;4986637;28;20034;-66
2023/12/06 05:23:49;;;;;;;62.70;24.67;;;0.20;99.90;;;;;;4985499;28;20084;-65
2023/12/06 05:26:14;;;;;;;88.72;27.75;;;0.20;99.90;;;;;;4986020;28;20026;-67
2023/12/06 05:28:40;;;;;;;33.95;13.80;;;0.20;99.90;;;;;;4986660;28;20029;-65
2023/12/06 05:31:06;;;;;;;64.63;28.52;;;0.20;99.90;;;;;;4960834;28;20131;-66
2023/12/06 05:33:31;;;;;;;73.72;21.42;;;0.20;99.90;;;;;;4983917;28;20080;-66
2023/12/06 05:35:57;;;;;;;49.50;18.67;;;0.20;99.90;;;;;;4977680;28;20096;-65
2023/12/06 05:38:23;;;;;;;69.60;22.85;;;0.20;99.90;;;;;;4960933;28;20041;-66
2023/12/06 05:40:49;;;;;;;64.32;24.85;;;0.20;99.90;;;;;;4978724;28;20033;-65
2023/12/06 05:43:15;;;;;;;80.93;27.08;;;0.20;99.90;;;;;;4974312;28;20427;-65
2023/12/06 05:45:41;;;;;;;76.38;26.58;;;0.20;99.90;;;;;;4976659;28;20445;-67
2023/12/06 05:48:07;;;;;;;77.85;28.25;;;0.20;99.90;;;;;;4966442;28;20014;-66
2023/12/06 05:50:32;;;;;;;82.78;28.10;;;0.20;99.90;;;;;;4980730;28;20023;-65
2023/12/06 05:52:58;;;;;;;91.95;29.27;;;0.20;99.90;;;;;;4979443;28;20425;-66
2023/12/06 05:55:24;;;;;;;89.05;28.85;;;0.20;99.90;;;;;;4965780;28;20030;-66
2023/12/06 05:57:49;;;;;;;86.63;29.27;;;0.30;99.90;;;;;;4984796;28;20515;-66
2023/12/06 06:00:17;;;;;;;90.18;39.42;;;0.30;99.90;;;;;;4971787;28;20033;-67
2023/12/06 06:02:43;;;;;;;54.17;18.85;;;0.20;99.90;;;;;;4976681;28;20019;-67
2023/12/06 06:05:09;;;;;;;64.50;24.58;;;0.20;99.90;;;;;;4964855;28;20033;-67
2023/12/06 06:07:35;;;;;;;52.47;21.05;;;0.30;99.90;;;;;;4957986;28;20022;-66
2023/12/06 06:10:01;;;;;;;72.88;25.60;;;0.30;99.90;;;;;;4958374;28;20022;-66
2023/12/06 06:12:26;;;;;;;97.63;32.67;;;0.30;99.90;;;;;;4963039;28;20451;-67
2023/12/06 06:14:54;;;;;;;48.90;18.13;;;0.20;99.90;;;;;;4960250;28;20030;-67
2023/12/06 06:17:20;;;;;;;77.32;26.25;;;;;;;;;;4960981;28;20067;-66
2023/12/06 06:19:45;;;;;;;61.67;21.73;;;0.20;99.90;;;;;;4979266;28;20050;-66
2023/12/06 06:22:11;;;;;;;76.93;24.65;;;0.30;99.90;;;;;;4981365;28;20102;-66
2023/12/06 06:24:37;;;;;;;91.00;29.15;;;0.20;99.90;;;;;;4979146;28;20031;-67
2023/12/06 06:27:02;;;;;;;109.60;35.38;;;0.20;99.90;;;;;;4973335;28;20669;-66
2023/12/06 06:29:28;;;;;;;93.82;30.65;;;0.00;99.90;;;;;;4974700;28;20035;-66
2023/12/06 06:31:54;;;;;;;85.95;30.25;;;0.30;99.90;;;;;;4974419;28;20030;-66
2023/12/06 06:34:20;;;;;;;118.28;35.83;;;0.30;99.90;;;;;;4963951;28;20113;-65
2023/12/06 06:36:45;;;;;;;53.45;21.00;;;0.30;99.90;;;;;;4953810;28;20023;-65
2023/12/06 06:39:13;;;;;;;108.03;34.88;;;0.30;99.90;;;;;;4971566;28;20105;-66
2023/12/06 06:41:39;;;;;;;113.50;37.78;;;0.40;99.90;;;;;;4972775;28;20023;-66
2023/12/06 06:44:05;;;;;;;106.10;35.25;;;0.40;99.90;;;;;;4961549;28;20113;-65
2023/12/06 06:46:31;;;;;;;107.18;36.00;;;0.40;99.90;;;;;;4978166;28;20110;-65
2023/12/06 06:48:56;;;;;;;104.38;33.33;;;0.50;99.90;;;;;;4962794;28;20106;-66
2023/12/06 06:51:36;;;;;;;105.47;34.67;;;0.50;99.90;;;;;;4972334;28;20031;-65
2023/12/06 06:54:06;;;;;;;110.87;33.70;;;0.50;99.90;;;;;;4970473;28;20030;-66
2023/12/06 06:56:32;;;;;;;;;;;0.50;99.90;;;;;;4981680;28;20126;-66
2023/12/06 06:59:00;;;;;;;110.70;31.67;;;0.50;99.90;;;;;;4975349;28;19993;-66
2023/12/06 07:01:26;;;;;;;91.22;34.50;;;0.50;99.90;;;;;;4974299;28;20022;-64
2023/12/06 07:03:52;;;;;;;100.60;31.30;;;0.60;99.90;;;;;;4979731;28;20375;-65
2023/12/06 07:06:18;;;;;;;101.00;29.55;;;0.60;99.90;;;;;;4980154;28;20392;-67
2023/12/06 07:08:43;;;;;;;106.85;50.55;;;0.70;99.90;;;;;;4977561;28;20018;-65
2023/12/06 07:11:09;;;;;;;77.25;31.80;;;0.70;99.90;;;;;;4976165;28;20471;-65
2023/12/06 07:13:36;;;;;;;89.15;36.92;;;0.70;99.90;;;;;;4962863;28;20035;-65
2023/12/06 07:16:02;;;;;;;78.20;23.33;;;0.80;99.90;;;;;;4980888;28;20022;-65
2023/12/06 07:18:28;;;;;;;52.72;18.67;;;0.60;99.90;;;;;;4978168;28;20533;-66
2023/12/06 07:20:53;;;;;;;67.60;21.75;;;0.80;99.90;;;;;;4982348;28;20398;-66
2023/12/06 07:23:19;;;;;;;86.22;28.80;;;0.80;99.90;;;;;;4981437;28;20033;-67
2023/12/06 07:25:46;;;;;;;46.67;18.70;;;0.90;99.90;;;;;;4979447;28;20085;-66
2023/12/06 07:28:12;;;;;;;85.63;27.67;;;0.90;99.90;;;;;;4978705;28;20018;-65
2023/12/06 07:30:38;;;;;;;73.30;29.80;;;0.90;99.90;;;;;;4958321;28;20121;-66
2023/12/06 07:33:04;;;;;;;61.15;24.33;;;0.90;99.90;;;;;;4978510;28;20110;-66
2023/12/06 07:35:34;;;;;;;87.38;37.72;;;0.90;99.90;;;;;;4979097;28;20267;-65
2023/12/06 07:38:00;;;;;;;;;;;0.90;99.90;;;;;;4977777;28;20041;-66
2023/12/06 07:40:26;;;;;;;68.57;22.88;;;0.90;99.90;;;;;;4974081;28;20005;-65
2023/12/06 07:42:52;;;;;;;50.15;19.27;;;0.90;99.90;;;;;;4979483;28;20393;-65
2023/12/06 07:45:17;;;;;;;63.40;27.35;;;1.00;99.90;;;;;;4977879;28;20084;-66
2023/12/06 07:47:43;;;;;;;56.40;22.25;;;1.00;99.90;;;;;;4977512;28;20228;-66
2023/12/06 07:50:09;;;;;;;89.07;29.50;;;1.00;99.90;;;;;;4983662;28;20503;-65
2023/12/06 07:52:36;;;;;;;87.10;28.92;;;1.10;99.90;;;;;;4984263;28;20062;-66
2023/12/06 07:55:06;;;;;;;85.68;28.58;;;1.10;99.90;;;;;;4983401;28;20037;-66
2023/12/06 07:57:32;;;;;;;80.68;26.42;;;1.10;99.90;;;;;;4980659;28;20057;-66
2023/12/06 07:59:58;;;;;;;69.72;24.30;;;1.10;99.90;;;;;;4988775;28;20499;-66
2023/12/06 08:02:25;;;;;;;98.85;33.92;;;1.20;99.90;;;;;;4984077;28;20149;-66
2023/12/06 08:04:50;;;;;;;50.42;18.13;;;1.20;99.90;;;;;;4981989;28;20186;-66
2023/12/06 08:07:16;;;;;;;78.82;28.90;;;1.20;99.90;;;;;;4962558;28;20138;-66
2023/12/06 08:09:42;;;;;;;44.65;15.95;;;1.30;99.90;;;;;;4982179;28;21424;-66
2023/12/06 08:12:10;;;;;;;79.20;28.70;;;1.30;99.90;;;;;;4988358;28;20084;-66
2023/12/06 08:14:39;;;;;;;67.22;23.90;;;1.30;99.90;;;;;;4985596;28;20042;-65
2023/12/06 08:17:05;;;;;;;74.20;26.80;;;1.30;99.90;;;;;;4968754;28;20030;-66
2023/12/06 08:19:31;;;;;;;65.25;22.85;;;1.30;99.90;;;;;;4985698;28;20410;-66
2023/12/06 08:21:56;;;;;;;87.30;27.85;;;1.30;99.90;;;;;;4987255;28;20082;-66
2023/12/06 08:24:22;;;;;;;53.60;19.55;;;1.30;99.90;;;;;;4988229;28;21463;-66
2023/12/06 08:26:47;;;;;;;38.17;15.18;;;1.40;99.90;;;;;;4986859;28;20033;-65
2023/12/06 08:29:16;;;;;;;65.40;24.75;;;1.40;99.90;;;;;;4984820;28;20105;-66
2023/12/06 08:31:41;;;;;;;54.15;19.77;;;1.30;99.90;;;;;;4985825;28;20031;-66
2023/12/06 08:34:07;;;;;;;72.97;25.55;;;1.40;99.90;;;;;;4985779;28;20037;-66
2023/12/06 08:36:33;;;;;;;39.00;19.05;;;1.40;99.90;;;;;;4984374;28;20026;-66
2023/12/06 08:38:58;;;;;;;82.57;29.70;;;1.40;99.90;;;;;;4986341;28;20057;-65
2023/12/06 08:41:24;;;;;;;54.88;17.92;;;1.40;99.90;;;;;;4964709;28;20390;-65
2023/12/06 08:43:49;;;;;;;76.10;28.20;;;1.40;99.90;;;;;;4978109;28;20031;-66
2023/12/06 08:46:18;;;;;;;72.18;27.90;;;1.40;99.90;;;;;;4982959;28;20035;-66
2023/12/06 08:48:43;;;;;;;69.50;24.77;;;1.40;99.90;;;;;;4969032;28;20022;-67
2023/12/06 08:51:09;;;;;;;58.55;22.50;;;1.50;99.90;;;;;;4972857;28;20485;-67
2023/12/06 08:53:43;;;;;;;71.38;27.33;;;1.50;99.90;;;;;;4989141;28;20097;-66
2023/12/06 08:56:09;;;;;;;53.45;18.65;;;1.50;99.90;;;;;;4985306;28;20393;-68
2023/12/06 08:58:34;;;;;;;68.60;25.65;;;1.50;99.90;;;;;;4987373;28;20019;-67
2023/12/06 09:01:00;;;;;;;58.60;22.63;;;1.50;99.90;;;;;;4982237;28;20145;-67
2023/12/06 09:03:25;;;;;;;63.05;21.20;;;1.40;99.90;;;;;;4985078;28;20478;-67
2023/12/06 09:05:51;;;;;;;58.63;21.30;;;1.50;99.90;;;;;;4972250;28;20022;-67
2023/12/06 09:08:16;;;;;;;47.78;15.98;;;1.60;99.90;;;;;;4982754;28;20030;-67
2023/12/06 09:10:42;;;;;;;65.25;23.27;;;1.60;99.90;;;;;;4966880;28;20382;-66
2023/12/06 09:13:08;;;;;;;61.25;22.30;;;1.60;99.90;;;;;;4987294;28;20026;-66
2023/12/06 09:15:35;;;;;;;63.67;22.17;;;1.60;99.90;;;;;;4985767;28;20023;-67
2023/12/06 09:18:01;;;;;;;63.78;23.10;;;1.60;99.90;;;;;;4969612;28;20031;-66
2023/12/06 09:20:26;;;;;;;62.10;20.75;;;1.60;99.90;;;;;;4984351;28;20057;-66
2023/12/06 09:22:52;;;;;;;47.05;17.02;;;1.70;99.90;;;;;;4984188;28;20108;-67
2023/12/06 09:25:18;;;;;;;71.25;23.92;;;1.70;99.90;;;;;;4984296;28;20101;-67
2023/12/06 09:27:43;;;;;;;78.43;24.67;;;1.70;99.90;;;;;;4970239;28;20026;-67
2023/12/06 09:30:09;;;;;;;75.05;25.80;;;1.70;99.90;;;;;;4987164;28;20035;-67
2023/12/06 09:32:35;;;;;;;71.47;23.85;;;1.80;99.90;;;;;;4983219;28;20022;-66
2023/12/06 09:35:01;;;;;;;55.22;17.95;;;1.80;99.90;;;;;;4987311;28;20042;-66
2023/12/06 09:37:34;;;;;;;61.00;21.23;;;1.80;99.90;;;;;;4982212;28;20034;-66
2023/12/06 09:40:00;;;;;;;61.22;19.48;;;1.80;99.90;;;;;;4981583;28;20042;-66
2023/12/06 09:42:28;;;;;;;56.25;21.92;;;1.90;99.90;;;;;;4982711;28;20395;-67
2023/12/06 09:44:57;;;;;;;66.13;23.25;;;1.90;99.90;;;;;;4967338;28;20089;-67
2023/12/06 09:47:23;;;;;;;52.35;19.60;;;1.90;99.90;;;;;;4983445;28;20061;-67
2023/12/06 09:49:49;;;;;;;37.42;16.20;;;2.00;99.90;;;;;;4967681;28;20026;-67
2023/12/06 09:52:20;;;;;;;54.92;20.75;;;2.00;99.90;;;;;;4985976;28;20029;-67
2023/12/06 09:54:47;;;;;;;48.08;18.20;;;2.00;99.90;;;;;;4987304;28;20042;-67
2023/12/06 09:57:13;;;;;;;43.78;15.50;;;2.00;99.90;;;;;;4970208;28;20127;-66
2023/12/06 09:59:40;;;;;;;67.95;24.92;;;2.00;99.90;;;;;;4984050;28;20074;-66
2023/12/06 10:02:08;;;;;;;46.88;20.65;;;2.10;99.90;;;;;;4983212;28;20401;-66
2023/12/06 10:04:35;;;;;;;62.95;23.00;;;2.10;99.90;;;;;;4968765;28;20418;-67
2023/12/06 10:07:01;;;;;;;65.25;24.52;;;2.10;99.90;;;;;;4970933;28;20026;-67
2023/12/06 10:09:27;;;;;;;50.15;18.90;;;2.10;99.90;;;;;;4986208;28;20397;-66
2023/12/06 10:12:03;;;;;;;75.30;27.05;;;2.20;99.90;;;;;;4967022;28;20090;-67
2023/12/06 10:14:29;;;;;;;65.45;25.40;;;2.20;99.90;;;;;;4983469;28;20613;-68
2023/12/06 10:16:54;;;;;;;59.83;23.67;;;2.20;99.90;;;;;;4983090;28;20097;-67
2023/12/06 10:19:22;;;;;;;61.65;27.70;;;2.30;99.90;;;;;;4965738;28;20478;-66
2023/12/06 10:21:49;;;;;;;56.35;21.42;;;2.30;99.90;;;;;;4987788;28;20022;-68
2023/12/06 10:24:14;;;;;;;38.55;15.27;;;2.30;99.90;;;;;;4980558;28;20486;-67
2023/12/06 10:26:42;;;;;;;43.28;15.63;;;2.30;99.90;;;;;;4984052;28;20037;-68
2023/12/06 10:29:08;;;;;;;68.07;25.40;;;2.30;99.90;;;;;;4977933;28;20027;-68
2023/12/06 10:31:45;;;;;;;69.43;26.10;;;2.40;99.90;;;;;;4962336;28;20458;-67
2023/12/06 10:34:11;;;;;;;60.22;22.50;;;2.40;99.90;;;;;;4979976;28;20058;-67
2023/12/06 10:36:37;;;;;;;60.75;24.70;;;2.40;99.90;;;;;;4980328;28;20052;-66
2023/12/06 10:39:08;;;;;;;63.03;23.67;;;2.50;99.90;;;;;;4982738;28;20105;-64
2023/12/06 10:41:41;;;;;;;38.90;17.17;;;2.50;99.90;;;;;;4968200;28;20031;-65
2023/12/06 10:44:09;;;;;;;45.47;19.45;;;2.50;99.90;;;;;;4979947;28;20035;-67
2023/12/06 10:46:36;;;;;;;47.45;20.27;;;2.50;99.90;;;;;;4977370;28;20482;-67
2023/12/06 10:49:03;;;;;;;56.85;23.33;;;2.60;99.90;;;;;;4981335;28;20160;-65
2023/12/06 10:51:34;;;;;;;38.75;15.75;;;2.60;99.90;;;;;;4979516;28;20113;-67
2023/12/06 10:54:01;;;;;;;61.20;23.52;;;2.60;99.90;;;;;;4981455;28;20034;-67
2023/12/06 10:56:28;;;;;;;52.40;22.70;;;2.70;99.90;;;;;;4982218;28;20045;-67
2023/12/06 10:58:56;;;;;;;66.40;26.73;;;2.70;99.90;;;;;;4981422;28;20058;-67
2023/12/06 11:01:24;;;;;;;60.22;23.45;;;2.70;99.90;;;;;;4956694;28;20038;-67
2023/12/06 11:03:51;;;;;;;51.47;22.85;;;2.70;99.90;;;;;;4978000;28;20038;-67
2023/12/06 11:06:41;;;;;;;54.03;23.60;;;2.70;99.90;;;;;;4962151;28;20034;-68
2023/12/06 11:09:36;;;;;;;30.10;12.32;;;2.80;99.90;;;;;;4978850;28;20033;-67
2023/12/06 11:12:26;;;;;;;44.22;18.38;;;2.80;99.90;;;;;;4980735;28;20081;-67
2023/12/06 11:15:26;;;;;;;44.08;20.10;;;2.80;99.90;;;;;;4982587;28;20117;-68
2023/12/06 11:18:03;;;;;;;36.63;15.52;;;2.80;99.90;;;;;;4985070;28;20042;-68
2023/12/06 11:20:31;;;;;;;53.03;21.98;;;2.80;99.90;;;;;;4982533;28;20061;-68
2023/12/06 11:22:56;;;;;;;50.78;22.88;;;2.80;99.90;;;;;;4984760;28;20034;-68
2023/12/06 11:25:22;;;;;;;39.15;16.42;;;2.80;99.90;;;;;;4978546;28;20383;-68
2023/12/06 11:27:49;;;;;;;30.73;14.10;;;2.80;99.90;;;;;;4977548;28;20455;-67
2023/12/06 11:30:16;;;;;;;32.60;15.73;;;2.80;99.90;;;;;;4985871;28;20029;-67
2023/12/06 11:32:43;;;;;;;42.90;17.55;;;2.80;99.90;;;;;;4979817;28;20312;-68
2023/12/06 11:35:09;;;;;;;45.15;19.35;;;2.90;99.90;;;;;;4962617;28;20050;-67
2023/12/06 11:37:35;;;;;;;41.25;18.42;;;2.80;99.90;;;;;;4979598;28;20072;-67
2023/12/06 11:40:20;;;;;;;33.67;14.45;;;2.80;99.90;;;;;;4970445;28;20042;-67
2023/12/06 11:42:56;;;;;;;29.45;13.93;;;2.80;99.90;;;;;;4982009;28;20041;-67
2023/12/06 11:45:32;;;;;;;42.53;19.52;;;2.80;99.90;;;;;;4966973;28;20058;-67
2023/12/06 11:48:07;;;;;;;41.72;19.80;;;2.90;99.90;;;;;;4984708;28;20113;-68
2023/12/06 11:50:46;;;;;;;41.28;19.23;;;2.90;99.90;;;;;;4969394;28;20022;-66
2023/12/06 11:53:12;;;;;;;35.10;16.13;;;2.90;99.90;;;;;;4989736;28;20082;-68
2023/12/06 11:55:40;;;;;;;34.88;16.05;;;3.00;99.90;;;;;;4965773;28;20439;-68
2023/12/06 11:58:12;;;;;;;38.47;17.00;;;3.00;99.90;;;;;;4987345;28;20073;-68
2023/12/06 12:00:42;;;;;;;45.25;20.63;;;3.00;99.90;;;;;;4969909;28;20106;-66
2023/12/06 12:03:10;;;;;;;35.20;17.00;;;3.00;99.90;;;;;;4984404;28;20105;-68
2023/12/06 12:05:41;;;;;;;46.88;21.23;;;3.00;99.90;;;;;;4967854;28;20061;-66
2023/12/06 12:08:07;;;;;;;52.85;23.58;;;3.10;99.90;;;;;;4985663;28;20022;-66
2023/12/06 12:10:34;;;;;;;47.33;22.40;;;3.10;99.90;;;;;;4981382;28;20474;-66
2023/12/06 12:12:59;;;;;;;42.22;20.38;;;3.20;99.90;;;;;;4983811;28;20039;-66
2023/12/06 12:15:25;;;;;;;45.00;22.23;;;3.20;99.90;;;;;;4972494;28;20577;-66
2023/12/06 12:17:54;;;;;;;39.53;20.27;;;3.20;99.90;;;;;;4984775;28;20501;-66
2023/12/06 12:20:20;;;;;;;36.65;16.73;;;3.20;99.90;;;;;;4986146;28;20141;-66
2023/12/06 12:22:48;;;;;;;51.45;21.52;;;3.20;99.90;;;;;;4971996;28;20113;-67
2023/12/06 12:25:14;;;;;;;46.97;20.35;;;3.20;99.90;;;;;;4969702;28;20027;-66
2023/12/06 12:27:42;;;;;;;33.90;13.85;;;3.20;99.90;;;;;;4982124;28;20097;-66
2023/12/06 12:30:09;;;;;;;37.38;17.30;;;3.20;99.90;;;;;;4987357;28;20031;-67
2023/12/06 12:32:39;;;;;;;46.65;21.48;;;3.30;99.90;;;;;;4982955;28;20027;-67
2023/12/06 12:35:06;;;;;;;25.55;11.98;;;3.20;99.90;;;;;;4985847;28;20037;-68
2023/12/06 12:37:32;;;;;;;44.30;17.92;;;3.20;99.90;;;;;;4983704;28;20023;-68